Time;durP1;ratioP1;P1;durP2;ratioP2;P2;SDS_P1;SDS_P2;PMS_P1;PMS_P2;Temp;Humidity;BMP_temperature;BMP_pressure;BME280_temperature;BME280_humidity;BME280_pressure;Samples;Min_cycle;Max_cycle;Signal;HPM_P1;HPM_P2
2024/04/17 00:02:06;;;;;;;0.10;0.10;;;;;;;8.84;66.42;101324.91;5484615;26;19994;-82
2024/04/17 00:04:32;;;;;;;0.10;0.10;;;;;;;8.84;66.34;101326.69;5478704;26;20622;-82
2024/04/17 00:06:59;;;;;;;0.10;0.10;;;;;;;8.85;66.48;101323.16;5489102;26;20007;-82
2024/04/17 00:09:25;;;;;;;0.10;0.10;;;;;;;8.87;66.52;101316.09;5492159;26;20087;-82
2024/04/17 00:11:51;;;;;;;0.10;0.10;;;;;;;8.88;66.36;101326.66;5475644;26;20051;-81
2024/04/17 00:14:17;;;;;;;0.10;0.10;;;;;;;8.90;66.54;101321.38;5479284;26;20008;-82
2024/04/17 00:16:43;;;;;;;0.10;0.10;;;;;;;8.92;66.47;101329.28;5472102;26;20027;-82
2024/04/17 00:19:09;;;;;;;0.10;0.10;;;;;;;8.92;66.69;101330.16;5486494;26;20005;-81
2024/04/17 00:21:36;;;;;;;0.10;0.10;;;;;;;8.90;66.88;101326.66;5483407;26;20006;-81
2024/04/17 00:24:02;;;;;;;0.10;0.10;;;;;;;8.88;67.01;101328.41;5487889;26;19999;-82
2024/04/17 00:26:28;;;;;;;0.10;0.10;;;;;;;8.91;67.01;101323.13;5483778;25;20070;-80
2024/04/17 00:28:55;;;;;;;0.10;0.10;;;;;;;8.91;66.98;101323.13;5480703;26;20453;-82
2024/04/17 00:31:21;;;;;;;0.10;0.10;;;;;;;8.92;66.94;101324.88;5490864;26;20001;-80
2024/04/17 00:33:47;;;;;;;0.10;0.10;;;;;;;8.92;67.07;101322.22;5492274;26;20007;-82
2024/04/17 00:36:13;;;;;;;0.20;0.20;;;;;;;8.92;66.97;101324.00;5479869;26;20094;-81
2024/04/17 00:38:40;;;;;;;0.10;0.10;;;;;;;8.93;66.95;101326.63;5491124;26;20009;-83
2024/04/17 00:41:06;;;;;;;0.20;0.20;;;;;;;8.92;67.10;101324.88;5478623;26;20030;-80
2024/04/17 00:43:32;;;;;;;0.10;0.10;;;;;;;8.90;67.15;101319.59;5477016;26;19998;-83
2024/04/17 00:45:59;;;;;;;0.10;0.10;;;;;;;8.89;67.18;101320.47;5479965;26;20014;-82
2024/04/17 00:48:26;;;;;;;0.20;0.20;;;;;;;8.92;67.22;101313.44;5497621;25;19997;-82
2024/04/17 00:50:53;;;;;;;0.10;0.10;;;;;;;8.94;67.36;101322.25;5484936;26;20071;-80
2024/04/17 00:53:25;;;;;;;0.13;0.13;;;;;;;9.00;67.33;101319.56;5487994;26;20009;-80
2024/04/17 00:55:54;;;;;;;0.20;0.20;;;;;;;8.98;67.70;101323.97;5495260;26;20445;-80
2024/04/17 00:58:21;;;;;;;0.10;0.10;;;;;;;8.97;67.50;101317.81;5487381;26;20022;-81
2024/04/17 01:00:48;;;;;;;0.17;0.17;;;;;;;8.96;67.63;101316.06;5486766;26;20002;-82
2024/04/17 01:03:14;;;;;;;0.10;0.10;;;;;;;8.95;67.70;101306.38;5496993;26;20006;-82
2024/04/17 01:05:41;;;;;;;0.10;0.10;;;;;;;8.93;67.80;101313.41;5500460;26;20040;-82
2024/04/17 01:08:07;;;;;;;0.10;0.10;;;;;;;8.92;67.84;101313.44;5501467;26;20002;-82
2024/04/17 01:10:34;;;;;;;0.10;0.10;;;;;;;8.93;67.82;101305.47;5482403;25;20042;-82
2024/04/17 01:13:00;;;;;;;0.10;0.10;;;;;;;8.93;67.93;101301.97;5481666;26;20002;-79
2024/04/17 01:15:34;;;;;;;0.10;0.10;;;;;;;8.99;67.87;101313.38;5482521;26;20074;-82
2024/04/17 01:18:01;;;;;;;0.10;0.10;;;;;;;8.93;67.98;101309.91;5480307;26;19994;-80
2024/04/17 01:20:28;;;;;;;0.10;0.10;;;;;;;8.95;68.02;101308.09;5473936;26;20013;-80
2024/04/17 01:22:54;;;;;;;12.13;4.03;;;;;;;8.97;67.77;101301.06;5477208;26;20006;-80
2024/04/17 01:25:20;;;;;;;0.10;0.10;;;;;;;8.99;67.95;101305.44;5477618;26;20016;-81
2024/04/17 01:27:46;;;;;;;0.10;0.10;;;;;;;9.02;68.11;101300.16;5471826;26;19994;-81
2024/04/17 01:30:12;;;;;;;0.10;0.10;;;;;;;9.06;68.15;101301.03;5493345;26;19994;-80
2024/04/17 01:32:39;;;;;;;0.10;0.10;;;;;;;9.07;68.14;101301.00;5481199;26;20002;-81
2024/04/17 01:35:05;;;;;;;0.20;0.20;;;;;;;9.07;68.22;101298.34;5473645;26;20017;-81
2024/04/17 01:37:31;;;;;;;0.10;0.10;;;;;;;9.09;68.22;101294.84;5483601;26;20441;-81
2024/04/17 01:39:57;;;;;;;0.10;0.10;;;;;;;9.07;68.20;101293.06;5477957;26;20318;-81
2024/04/17 01:42:23;;;;;;;0.10;0.10;;;;;;;9.07;68.27;101292.19;5482660;26;20449;-81
2024/04/17 01:44:49;;;;;;;0.10;0.10;;;;;;;9.07;68.41;101292.19;5470199;26;20002;-82
2024/04/17 01:47:15;;;;;;;0.10;0.10;;;;;;;9.05;68.34;101292.19;5486301;26;20005;-82
2024/04/17 01:49:42;;;;;;;0.10;0.10;;;;;;;9.05;68.35;101297.47;5489016;26;20026;-81
2024/04/17 01:52:08;;;;;;;0.10;0.10;;;;;;;9.04;68.35;101293.06;5470746;26;20011;-82
2024/04/17 01:54:37;;;;;;;0.10;0.10;;;;;;;9.04;68.33;101293.06;5488966;26;20059;-81
2024/04/17 01:57:03;;;;;;;0.20;0.20;;;;;;;9.01;68.31;101303.69;5482359;26;20026;-82
2024/04/17 01:59:29;;;;;;;0.10;0.10;;;;;;;9.00;68.42;101298.41;5480349;26;19999;-82
2024/04/17 02:01:56;;;;;;;0.10;0.10;;;;;;;8.97;68.49;101303.69;5482338;26;20003;-83
2024/04/17 02:04:22;;;;;;;0.15;0.15;;;;;;;8.96;68.63;101299.28;5487587;26;20013;-82
2024/04/17 02:06:48;;;;;;;0.10;0.10;;;;;;;8.92;68.78;101298.44;5491321;26;20068;-80
2024/04/17 02:09:14;;;;;;;0.10;0.10;;;;;;;8.93;68.74;101300.19;5472891;26;20004;-82
2024/04/17 02:11:40;;;;;;;0.10;0.10;;;;;;;8.92;68.75;101287.88;5483206;26;20000;-81
2024/04/17 02:14:06;;;;;;;0.10;0.10;;;;;;;8.94;68.78;101291.38;5501051;26;19998;-81
2024/04/17 02:16:32;;;;;;;0.10;0.10;;;;;;;8.97;68.68;101291.38;5474739;26;20015;-81
2024/04/17 02:18:59;;;;;;;0.10;0.10;;;;;;;8.98;68.88;101298.41;5467661;26;19995;-81
2024/04/17 02:21:25;;;;;;;0.10;0.10;;;;;;;9.01;68.80;101287.81;5474216;26;20011;-82
2024/04/17 02:23:51;;;;;;;0.10;0.10;;;;;;;9.03;68.79;101304.56;5482272;26;20058;-81
2024/04/17 02:26:17;;;;;;;0.10;0.10;;;;;;;9.07;68.83;101301.00;5488946;26;20009;-81
2024/04/17 02:28:43;;;;;;;0.10;0.10;;;;;;;9.07;68.81;101303.66;5476480;26;20002;-82
2024/04/17 02:31:09;;;;;;;0.10;0.10;;;;;;;9.05;68.91;101310.69;5490584;26;20091;-81
2024/04/17 02:33:35;;;;;;;0.10;0.10;;;;;;;9.04;68.92;101311.56;5494524;26;20442;-81
2024/04/17 02:36:02;;;;;;;0.10;0.10;;;;;;;8.98;68.92;101308.97;5482028;26;20568;-81
2024/04/17 02:38:28;;;;;;;0.10;0.10;;;;;;;8.97;69.08;101312.53;5476963;26;19998;-81
2024/04/17 02:40:54;;;;;;;0.20;0.20;;;;;;;8.95;68.83;101305.47;5477492;26;19998;-81
2024/04/17 02:43:20;;;;;;;0.10;0.10;;;;;;;8.92;68.90;101303.72;5475995;26;20030;-80
2024/04/17 02:45:46;;;;;;;0.10;0.10;;;;;;;8.91;68.83;101296.72;5488690;26;20002;-82
2024/04/17 02:48:12;;;;;;;0.10;0.10;;;;;;;8.90;68.75;101292.31;5486423;26;20005;-82
2024/04/17 02:50:40;;;;;;;0.20;0.20;;;;;;;8.90;68.93;101289.66;5469000;26;20010;-81
2024/04/17 02:53:07;;;;;;;0.10;0.10;;;;;;;8.89;68.79;101294.03;5482653;26;20013;-81
2024/04/17 02:55:33;;;;;;;0.10;0.10;;;;;;;8.87;68.87;101285.28;5486333;26;19999;-81
2024/04/17 02:57:59;;;;;;;0.10;0.10;;;;;;;8.88;68.92;101288.78;5487581;26;20013;-81
2024/04/17 03:00:26;;;;;;;0.10;0.10;;;;;;;8.89;69.09;101287.91;5483062;26;20008;-82
2024/04/17 03:02:52;;;;;;;0.40;0.40;;;;;;;8.90;69.05;101281.72;5479026;26;20006;-81
2024/04/17 03:05:18;;;;;;;0.10;0.10;;;;;;;8.90;69.04;101292.31;5470418;26;19991;-82
2024/04/17 03:07:44;;;;;;;0.10;0.10;;;;;;;8.88;69.23;101288.78;5466881;26;20007;-81
2024/04/17 03:10:12;;;;;;;0.10;0.10;;;;;;;8.86;69.31;101287.91;5487752;26;20042;-81
2024/04/17 03:12:38;;;;;;;0.10;0.10;;;;;;;8.84;69.31;101302.91;5482565;26;20496;-82
2024/04/17 03:15:06;;;;;;;0.20;0.20;;;;;;;8.81;69.30;101297.63;5487295;26;20009;-80
2024/04/17 03:17:33;;;;;;;0.10;0.10;;;;;;;8.79;69.40;101305.56;5479592;26;20002;-82
2024/04/17 03:19:59;;;;;;;0.10;0.10;;;;;;;8.79;69.41;101304.69;5483948;26;19999;-82
2024/04/17 03:22:25;;;;;;;0.10;0.10;;;;;;;8.78;69.38;101305.56;5497249;26;20030;-82
2024/04/17 03:24:52;;;;;;;0.20;0.20;;;;;;;8.78;69.50;101322.28;5491268;26;20052;-82
2024/04/17 03:27:18;;;;;;;0.10;0.10;;;;;;;8.77;69.33;101315.25;5490374;26;19997;-82
2024/04/17 03:29:45;;;;;;;0.10;0.10;;;;;;;8.75;69.40;101322.31;5489026;26;20012;-82
2024/04/17 03:32:11;;;;;;;0.20;0.20;;;;;;;8.77;69.46;101320.53;5486037;26;19994;-83
2024/04/17 03:34:37;;;;;;;0.10;0.10;;;;;;;8.76;69.44;101317.91;5488485;26;20006;-80
2024/04/17 03:37:03;;;;;;;0.10;0.10;;;;;;;8.73;69.48;101319.69;5488204;26;19998;-82
2024/04/17 03:39:29;;;;;;;0.10;0.10;;;;;;;8.70;69.46;101335.56;5490767;26;20429;-80
2024/04/17 03:41:56;;;;;;;0.13;0.13;;;;;;;8.65;69.43;101326.78;5487707;26;20006;-81
2024/04/17 03:44:22;;;;;;;0.10;0.10;;;;;;;8.61;69.54;101329.41;5470965;26;20326;-82
2024/04/17 03:46:48;;;;;;;0.20;0.20;;;;;;;8.57;69.50;101328.56;5490918;26;20038;-81
2024/04/17 03:49:15;;;;;;;0.20;0.20;;;;;;;8.53;69.50;101327.69;5477766;26;20449;-78
2024/04/17 03:51:42;;;;;;;0.13;0.13;;;;;;;8.51;69.58;101332.13;5490608;26;19998;-80
2024/04/17 03:54:08;;;;;;;0.10;0.10;;;;;;;8.49;69.73;101338.28;5478210;26;20022;-80
2024/04/17 03:56:34;;;;;;;0.10;0.10;;;;;;;8.48;69.60;101333.88;5469777;26;20006;-79
2024/04/17 03:59:00;;;;;;;0.20;0.20;;;;;;;8.48;69.59;101336.53;5482150;26;19991;-83
2024/04/17 04:01:26;;;;;;;0.20;0.20;;;;;;;8.46;69.66;101325.97;5489689;26;20002;-81
2024/04/17 04:03:52;;;;;;;0.10;0.10;;;;;;;8.45;69.58;101339.13;5491188;26;20022;-79
2024/04/17 04:06:19;;;;;;;0.10;0.10;;;;;;;8.44;69.62;101335.63;5494978;26;19998;-78
2024/04/17 04:08:45;;;;;;;0.10;0.10;;;;;;;8.44;69.82;101338.25;5495712;26;20014;-78
2024/04/17 04:11:11;;;;;;;0.20;0.20;;;;;;;8.45;69.67;101339.13;5499148;26;19998;-80
2024/04/17 04:13:37;;;;;;;0.10;0.10;;;;;;;8.42;69.73;101338.28;5482421;26;19990;-80
2024/04/17 04:16:04;;;;;;;0.10;0.10;;;;;;;8.42;69.72;101334.72;5480214;26;19998;-80
2024/04/17 04:18:30;;;;;;;0.10;0.10;;;;;;;8.42;69.74;101338.28;5488522;25;19990;-82
2024/04/17 04:20:56;;;;;;;0.20;0.20;;;;;;;8.45;69.71;101342.66;5491630;26;20450;-81
2024/04/17 04:23:22;;;;;;;0.10;0.10;;;;;;;8.48;69.56;101340.03;5489284;26;20535;-80
2024/04/17 04:25:48;;;;;;;0.10;0.10;;;;;;;8.50;70.10;101332.09;5485009;26;20022;-80
2024/04/17 04:28:15;;;;;;;0.10;0.10;;;;;;;8.53;69.85;101335.59;5492942;26;20012;-79
2024/04/17 04:30:41;;;;;;;0.10;0.10;;;;;;;8.54;69.85;101333.88;5500005;26;20008;-79
2024/04/17 04:33:08;;;;;;;0.10;0.10;;;;;;;8.49;69.77;101331.22;5496325;26;20268;-81
2024/04/17 04:35:35;;;;;;;0.13;0.13;;;;;;;8.42;69.95;101338.28;5490157;26;19998;-81
2024/04/17 04:38:01;;;;;;;0.10;0.10;;;;;;;8.38;69.91;101333.84;5483667;26;20458;-81
2024/04/17 04:40:27;;;;;;;0.10;0.10;;;;;;;8.34;69.82;101332.13;5480325;26;19998;-80
2024/04/17 04:42:54;;;;;;;0.10;0.10;;;;;;;8.29;69.84;101339.19;5489659;26;19998;-79
2024/04/17 04:45:20;;;;;;;0.10;0.10;;;;;;;8.24;70.01;101335.69;5479600;26;20453;-81
2024/04/17 04:47:46;;;;;;;0.10;0.10;;;;;;;8.20;69.86;101337.44;5477355;26;20600;-82
2024/04/17 04:50:13;;;;;;;0.00;0.00;;;;;;;8.14;69.83;101333.91;5475506;26;20330;-81
2024/04/17 04:52:39;;;;;;;0.10;0.10;;;;;;;8.12;69.66;101338.34;5481164;26;20001;-83
2024/04/17 04:55:06;;;;;;;0.10;0.10;;;;;;;8.06;69.74;101337.47;5489314;26;20005;-81
2024/04/17 04:57:32;;;;;;;0.10;0.10;;;;;;;8.03;69.59;101332.19;5461432;25;20448;-81
2024/04/17 04:59:58;;;;;;;0.10;0.10;;;;;;;7.98;69.50;101339.25;5473814;26;19998;-79
2024/04/17 05:02:25;;;;;;;0.15;0.15;;;;;;;7.96;69.32;101340.13;5473277;26;19994;-82
2024/04/17 05:04:51;;;;;;;0.10;0.10;;;;;;;7.92;69.56;101339.25;5483685;26;20058;-81
2024/04/17 05:07:17;;;;;;;0.10;0.10;;;;;;;7.89;69.45;101341.91;5478148;26;19998;-80
2024/04/17 05:09:43;;;;;;;0.10;0.10;;;;;;;7.88;69.37;101332.22;5485542;26;20004;-80
2024/04/17 05:12:09;;;;;;;0.10;0.10;;;;;;;7.85;69.58;101338.38;5480246;26;20005;-82
2024/04/17 05:14:35;;;;;;;0.20;0.20;;;;;;;7.85;69.44;101340.13;5474522;26;19991;-81
2024/04/17 05:17:02;;;;;;;0.10;0.10;;;;;;;7.83;69.37;101339.25;5455324;26;20007;-81
2024/04/17 05:19:28;;;;;;;0.10;0.10;;;;;;;7.83;69.38;101340.13;5488919;26;19999;-81
2024/04/17 05:21:54;;;;;;;0.10;0.10;;;;;;;7.82;69.48;101337.50;5481237;26;20045;-81
2024/04/17 05:24:20;;;;;;;0.15;0.15;;;;;;;7.85;69.44;101340.13;5487465;26;19998;-79
2024/04/17 05:26:46;;;;;;;0.20;0.20;;;;;;;7.89;69.48;101341.91;5481229;26;19995;-82
2024/04/17 05:29:12;;;;;;;0.17;0.17;;;;;;;7.92;69.46;101345.41;5485782;26;20074;-81
2024/04/17 05:31:39;;;;;;;0.10;0.10;;;;;;;7.99;69.56;101341.00;5485902;26;20005;-82
2024/04/17 05:34:05;;;;;;;0.20;0.20;;;;;;;8.05;69.43;101346.28;5485639;26;20033;-81
2024/04/17 05:36:31;;;;;;;0.17;0.17;;;;;;;8.09;69.57;101337.47;5488400;26;20052;-80
2024/04/17 05:38:57;;;;;;;0.10;0.10;;;;;;;8.17;69.42;101336.56;5491581;26;20017;-80
2024/04/17 05:41:23;;;;;;;0.20;0.20;;;;;;;8.18;69.38;101333.06;5482241;26;20038;-82
2024/04/17 05:43:49;;;;;;;0.10;0.10;;;;;;;8.18;69.26;101335.69;5489362;26;20442;-81
2024/04/17 05:46:15;;;;;;;0.10;0.10;;;;;;;8.20;69.16;101331.28;5481895;26;20446;-82
2024/04/17 05:48:42;;;;;;;0.10;0.10;;;;;;;8.21;69.02;101330.38;5488065;26;20342;-82
2024/04/17 05:51:08;;;;;;;0.10;0.10;;;;;;;8.23;68.91;101334.78;5486504;26;20002;-83
2024/04/17 05:53:34;;;;;;;0.10;0.10;;;;;;;8.30;68.97;101334.75;5483380;26;20461;-82
2024/04/17 05:56:00;;;;;;;0.10;0.10;;;;;;;8.34;68.91;101341.81;5480426;26;20022;-83
2024/04/17 05:58:26;;;;;;;0.10;0.10;;;;;;;8.40;68.99;101347.09;5491900;25;20023;-83
2024/04/17 06:00:53;;;;;;;0.10;0.10;;;;;;;8.46;68.89;101346.16;5477807;26;20002;-81
2024/04/17 06:03:19;;;;;;;0.10;0.10;;;;;;;8.50;68.80;101340.00;5489348;26;20149;-79
2024/04/17 06:05:45;;;;;;;0.10;0.10;;;;;;;8.52;68.71;101341.78;5485424;26;20070;-81
2024/04/17 06:08:11;;;;;;;0.10;0.10;;;;;;;8.55;68.66;101340.91;5479135;26;19994;-82
2024/04/17 06:10:37;;;;;;;0.10;0.10;;;;;;;8.58;68.53;101339.13;5462404;26;20450;-82
2024/04/17 06:13:03;;;;;;;0.10;0.10;;;;;;;8.60;68.63;101333.84;5479766;26;20506;-81
2024/04/17 06:15:30;;;;;;;0.10;0.10;;;;;;;8.61;68.42;101340.88;5485710;26;20008;-81
2024/04/17 06:17:57;;;;;;;0.10;0.10;;;;;;;8.62;68.41;101326.75;5488710;26;20000;-81
2024/04/17 06:20:25;;;;;;;0.10;0.10;;;;;;;8.61;68.22;101330.31;5482762;26;20456;-81
2024/04/17 06:22:51;;;;;;;0.10;0.10;;;;;;;8.61;68.05;101330.31;5475911;26;19990;-81
2024/04/17 06:25:17;;;;;;;0.10;0.10;;;;;;;8.61;68.03;101325.03;5488647;26;20032;-81
2024/04/17 06:27:43;;;;;;;0.10;0.10;;;;;;;8.65;68.10;101326.78;5483488;26;20006;-81
2024/04/17 06:30:10;;;;;;;8.25;0.45;;;;;;;8.71;68.31;101332.03;5472883;26;19999;-82
2024/04/17 06:32:36;;;;;;;0.10;0.10;;;;;;;8.70;67.91;101329.41;5483423;26;20053;-81
2024/04/17 06:35:03;;;;;;;0.10;0.10;;;;;;;8.72;67.77;101339.06;5475359;26;19998;-81
2024/04/17 06:37:29;;;;;;;0.10;0.10;;;;;;;8.77;67.51;101335.53;5478986;26;20052;-80
2024/04/17 06:39:55;;;;;;;0.10;0.10;;;;;;;8.84;67.71;101337.25;5483151;26;20400;-80
2024/04/17 06:42:21;;;;;;;0.10;0.10;;;;;;;8.90;67.86;101330.16;5480900;26;19998;-81
2024/04/17 06:44:47;;;;;;;0.10;0.10;;;;;;;9.00;68.20;101333.63;5495528;26;20020;-80
2024/04/17 06:47:15;;;;;;;0.10;0.10;;;;;;;9.07;67.96;101331.81;5494060;26;20020;-79
2024/04/17 06:49:41;;;;;;;0.10;0.10;;;;;;;9.18;68.14;101332.66;5479497;26;19999;-80
2024/04/17 06:52:07;;;;;;;0.10;0.10;;;;;;;9.32;67.99;101340.50;5485355;26;20325;-81
2024/04/17 06:54:33;;;;;;;0.10;0.10;;;;;;;9.45;68.15;101340.41;5484019;26;20016;-82
2024/04/17 06:56:59;;;;;;;0.10;0.10;;;;;;;9.58;67.86;101331.47;5482728;26;20002;-82
2024/04/17 06:59:25;;;;;;;0.10;0.10;;;;;;;9.69;67.43;101337.59;5474878;26;20735;-82
2024/04/17 07:01:52;;;;;;;0.10;0.10;;;;;;;9.79;67.78;101337.50;5471999;26;20006;-81
2024/04/17 07:04:18;;;;;;;0.10;0.10;;;;;;;9.92;67.81;101335.59;5488591;26;20330;-79
2024/04/17 07:06:44;;;;;;;0.17;0.17;;;;;;;10.00;67.47;101339.06;5480109;26;20009;-79
2024/04/17 07:09:10;;;;;;;0.10;0.10;;;;;;;10.14;67.47;101349.50;5488763;26;20048;-81
2024/04/17 07:11:37;;;;;;;0.10;0.10;;;;;;;10.22;67.41;101350.31;5490259;26;20051;-82
2024/04/17 07:14:03;;;;;;;0.10;0.10;;;;;;;10.26;67.19;101352.03;5495109;26;20002;-82
2024/04/17 07:16:29;;;;;;;0.10;0.10;;;;;;;10.23;67.04;101365.31;5481440;26;20333;-81
2024/04/17 07:18:56;;;;;;;0.10;0.10;;;;;;;10.10;66.83;101372.50;5491882;26;19994;-82
2024/04/17 07:21:22;;;;;;;0.10;0.10;;;;;;;9.87;66.29;101375.38;5480365;26;20009;-81
2024/04/17 07:23:48;;;;;;;0.10;0.10;;;;;;;9.62;66.19;101383.50;5489360;26;20565;-79
2024/04/17 07:26:15;;;;;;;0.10;0.10;;;;;;;9.42;66.15;101372.16;5491768;26;20074;-80
2024/04/17 07:28:41;;;;;;;0.10;0.10;;;;;;;9.27;66.49;101375.78;5482939;26;20013;-79
2024/04/17 07:31:08;;;;;;;0.10;0.10;;;;;;;9.14;66.78;101388.19;5478484;26;20003;-79
2024/04/17 07:33:34;;;;;;;0.20;0.20;;;;;;;9.01;67.03;101388.25;5490639;26;20014;-81
2024/04/17 07:36:02;;;;;;;0.10;0.10;;;;;;;8.89;67.04;101390.97;5479704;26;20009;-81
2024/04/17 07:38:28;;;;;;;0.10;0.10;;;;;;;8.79;67.05;101387.47;5493054;26;20457;-80
2024/04/17 07:40:59;;;;;;;0.10;0.10;;;;;;;8.78;67.20;101385.72;5490426;26;19998;-81
2024/04/17 07:43:30;;;;;;;0.20;0.20;;;;;;;8.69;67.39;101385.75;5476260;26;20072;-78
2024/04/17 07:45:58;;;;;;;0.10;0.10;;;;;;;8.63;67.44;101386.63;5472608;26;20031;-81
2024/04/17 07:48:24;;;;;;;0.20;0.20;;;;;;;8.61;67.53;101363.75;5482319;26;20006;-81
2024/04/17 07:50:50;;;;;;;0.10;0.10;;;;;;;8.59;68.05;101345.28;5483843;26;19987;-82
2024/04/17 07:53:16;;;;;;;0.10;0.10;;;;;;;8.60;68.28;101340.88;5502782;26;20035;-83
2024/04/17 07:55:42;;;;;;;0.10;0.10;;;;;;;8.64;68.50;101342.63;5495153;26;19994;-81
2024/04/17 07:58:09;;;;;;;0.15;0.15;;;;;;;8.69;68.41;101349.63;5484606;26;20072;-81
2024/04/17 08:00:35;;;;;;;0.10;0.10;;;;;;;8.77;68.36;101352.25;5486959;26;20012;-82
2024/04/17 08:03:02;;;;;;;0.15;0.15;;;;;;;8.83;68.47;101348.72;5487130;26;19998;-81
2024/04/17 08:05:28;;;;;;;0.10;0.10;;;;;;;8.93;68.51;101355.69;5472108;26;20009;-81
2024/04/17 08:07:55;;;;;;;0.10;0.10;;;;;;;9.04;68.57;101353.00;5475982;26;20685;-81
2024/04/17 08:10:21;;;;;;;0.10;0.10;;;;;;;9.17;68.87;101345.88;5469972;26;20029;-81
2024/04/17 08:12:47;;;;;;;0.10;0.10;;;;;;;9.30;69.38;101346.69;5480016;26;20030;-84
2024/04/17 08:15:14;;;;;;;0.10;0.10;;;;;;;9.42;69.55;101345.72;5477683;26;19995;-83
2024/04/17 08:17:43;;;;;;;0.10;0.10;;;;;;;9.53;69.60;101341.22;5487697;26;20011;-79
2024/04/17 08:20:09;;;;;;;0.13;0.13;;;;;;;9.60;69.71;101335.00;5481579;26;20002;-79
2024/04/17 08:22:36;;;;;;;0.10;0.10;;;;;;;9.68;69.49;101329.63;5476862;26;20011;-83
2024/04/17 08:25:02;;;;;;;0.10;0.10;;;;;;;9.75;69.46;101327.84;5470171;26;20450;-81
2024/04/17 08:27:28;;;;;;;0.10;0.10;;;;;;;9.78;69.88;101333.97;5476083;26;19995;-85
2024/04/17 08:29:54;;;;;;;0.10;0.10;;;;;;;9.84;69.44;101344.50;5483051;26;20006;-81
2024/04/17 08:32:21;;;;;;;0.20;0.20;;;;;;;9.88;69.11;101343.59;5481410;26;19999;-82
2024/04/17 08:34:47;;;;;;;0.10;0.10;;;;;;;9.95;69.05;101347.03;5479310;26;19998;-84
2024/04/17 08:37:17;;;;;;;0.10;0.10;;;;;;;10.00;69.11;101334.63;5474770;26;20599;-82
2024/04/17 08:39:43;;;;;;;0.10;0.10;;;;;;;10.07;68.72;101339.88;5479298;26;20017;-81
2024/04/17 08:42:21;;;;;;;0.10;0.10;;;;;;;10.17;68.28;101336.25;5480223;26;20013;-82
2024/04/17 08:44:47;;;;;;;0.10;0.10;;;;;;;10.21;67.75;101337.97;5481386;26;20384;-81
2024/04/17 08:47:15;;;;;;;0.10;0.10;;;;;;;10.24;67.63;101337.06;5491515;26;20005;-80
2024/04/17 08:49:42;;;;;;;0.10;0.10;;;;;;;10.30;67.25;101331.69;5492195;26;19998;-83
2024/04/17 08:52:09;;;;;;;0.10;0.10;;;;;;;10.40;66.66;101313.97;5488896;26;20005;-80
2024/04/17 08:54:37;;;;;;;0.10;0.10;;;;;;;10.49;67.08;101311.19;5494665;26;20018;-82
2024/04/17 08:57:03;;;;;;;0.32;0.32;;;;;;;10.57;66.86;101309.34;5492757;26;20013;-77
2024/04/17 08:59:29;;;;;;;0.10;0.10;;;;;;;10.64;67.02;101310.13;5501142;26;19998;-79
2024/04/17 09:01:59;;;;;;;0.10;0.10;;;;;;;10.73;67.13;101303.81;5492353;26;19996;-80
2024/04/17 09:04:27;;;;;;;0.30;0.30;;;;;;;10.72;65.45;101295.00;5486944;26;20012;-81
2024/04/17 09:06:55;;;;;;;0.10;0.10;;;;;;;10.67;65.32;101299.50;5489260;26;20002;-79
2024/04/17 09:09:22;;;;;;;0.10;0.10;;;;;;;10.72;65.39;101291.50;5497090;26;20009;-81
2024/04/17 09:11:50;;;;;;;0.32;0.32;;;;;;;10.77;65.38;101294.97;5487031;26;19995;-80
2024/04/17 09:14:19;;;;;;;0.10;0.10;;;;;;;10.88;66.84;101287.72;5482219;26;20002;-79
2024/04/17 09:16:45;;;;;;;0.15;0.15;;;;;;;10.98;65.50;101288.47;5482195;26;19995;-79
2024/04/17 09:19:12;;;;;;;0.10;0.10;;;;;;;11.06;64.81;101291.88;5492414;26;20000;-78
2024/04/17 09:21:39;;;;;;;0.20;0.20;;;;;;;11.16;64.13;101292.63;5483053;26;20008;-79
2024/04/17 09:24:05;;;;;;;0.10;0.10;;;;;;;11.30;65.64;101295.94;5482933;26;19999;-77
2024/04/17 09:26:32;;;;;;;0.10;0.10;;;;;;;11.39;65.30;101299.31;5468803;26;20055;-79
2024/04/17 09:28:58;;;;;;;0.10;0.10;;;;;;;11.46;65.55;101293.03;5473109;26;19994;-80
2024/04/17 09:31:24;;;;;;;0.17;0.17;;;;;;;11.54;64.36;101293.78;5477265;26;20009;-81
2024/04/17 09:33:51;;;;;;;0.20;0.20;;;;;;;11.62;62.13;101297.16;5487479;26;20026;-78
2024/04/17 09:36:17;;;;;;;0.10;0.10;;;;;;;11.73;60.67;101299.66;5494268;26;20013;-80
2024/04/17 09:38:44;;;;;;;0.20;0.20;;;;;;;11.80;62.26;101303.06;5485521;26;19998;-79
2024/04/17 09:41:10;;;;;;;0.10;0.10;;;;;;;11.73;63.51;101312.06;5482653;26;20183;-78
2024/04/17 09:43:42;;;;;;;0.10;0.10;;;;;;;11.61;61.63;101311.38;5480462;26;20004;-77
2024/04/17 09:46:09;;;;;;;0.20;0.20;;;;;;;11.44;64.07;101324.00;5481694;26;20013;-79
2024/04/17 09:48:37;;;;;;;0.10;0.10;;;;;;;11.16;61.18;101325.34;5483674;26;20018;-82
2024/04/17 09:51:05;;;;;;;0.10;0.10;;;;;;;10.93;63.44;101359.22;5484676;26;20002;-78
2024/04/17 09:53:35;;;;;;;0.10;0.10;;;;;;;10.56;62.48;101359.72;5489410;26;20002;-78
2024/04/17 09:56:04;;;;;;;0.45;0.45;;;;;;;10.03;62.29;101374.34;5490632;26;20362;-78
2024/04/17 09:58:33;;;;;;;0.40;0.40;;;;;;;9.73;63.41;101361.34;5487957;26;20007;-77
2024/04/17 10:01:04;;;;;;;0.25;0.25;;;;;;;9.44;64.02;101360.69;5475712;26;20010;-79
2024/04/17 10:03:32;;;;;;;0.10;0.10;;;;;;;9.11;64.67;101365.31;5485482;26;19994;-77
2024/04/17 10:06:00;;;;;;;0.20;0.20;;;;;;;8.84;65.27;101363.69;5483646;26;20007;-79
2024/04/17 10:08:31;;;;;;;0.10;0.10;;;;;;;8.74;65.54;101365.47;5484944;26;20002;-81
2024/04/17 10:10:58;;;;;;;0.20;0.20;;;;;;;8.58;65.84;101365.56;5489826;26;20009;-79
2024/04/17 10:13:25;;;;;;;0.10;0.10;;;;;;;8.57;66.39;101377.00;5495964;26;19998;-79
2024/04/17 10:15:52;;;;;;;0.20;0.20;;;;;;;8.50;66.35;101359.41;5480851;26;20002;-76
2024/04/17 10:18:19;;;;;;;0.20;0.20;;;;;;;8.48;66.61;101365.56;5483957;26;20006;-80
2024/04/17 10:20:45;;;;;;;0.13;0.13;;;;;;;8.42;67.12;101361.13;5495318;26;19990;-77
2024/04/17 10:23:14;;;;;;;0.20;0.20;;;;;;;8.44;67.75;101359.38;5485791;26;19999;-78
2024/04/17 10:25:50;;;;;;;0.10;0.10;;;;;;;8.49;68.11;101352.34;5470070;26;20071;-82
2024/04/17 10:28:19;;;;;;;0.13;0.13;;;;;;;8.53;68.19;101351.44;5478045;26;20023;-78
2024/04/17 10:30:47;;;;;;;0.43;0.43;;;;;;;8.64;68.93;101345.28;5486157;26;19999;-79
2024/04/17 10:35:58;;;;;;;0.10;0.10;;;;;;;8.93;69.44;101347.78;5506340;25;20681;-79
2024/04/17 10:38:26;;;;;;;0.20;0.20;;;;;;;9.03;69.47;101354.78;5453941;26;20045;-79
2024/04/17 10:40:55;;;;;;;0.10;0.10;;;;;;;9.14;69.48;101344.13;5450721;26;20003;-80
2024/04/17 10:43:22;;;;;;;0.10;0.10;;;;;;;9.30;69.94;101339.63;5455534;26;20093;-80
2024/04/17 10:46:09;;;;;;;0.10;0.10;;;;;;;9.54;70.36;101345.63;5455314;26;20349;-79
2024/04/17 10:48:45;;;;;;;0.10;0.10;;;;;;;9.64;70.08;101336.72;5452230;26;19996;-79
2024/04/17 10:51:14;;;;;;;0.10;0.10;;;;;;;9.76;70.37;101340.16;5437136;26;20400;-80
2024/04/17 10:53:45;;;;;;;0.10;0.10;;;;;;;9.91;70.26;101340.03;5446914;26;20488;-78
2024/04/17 10:56:13;;;;;;;0.10;0.10;;;;;;;10.09;70.55;101335.44;5443402;26;20007;-78
2024/04/17 10:58:39;;;;;;;0.20;0.20;;;;;;;10.24;69.61;101337.91;5448917;26;19995;-79
2024/04/17 11:01:06;;;;;;;0.10;0.10;;;;;;;10.40;69.57;101340.44;5457037;26;20744;-78
2024/04/17 11:03:32;;;;;;;0.10;0.10;;;;;;;10.58;69.74;101334.03;5448764;26;20015;-77
2024/04/17 11:05:59;;;;;;;0.10;0.10;;;;;;;10.77;70.15;101332.06;5451266;26;20011;-78
2024/04/17 11:08:25;;;;;;;0.10;0.10;;;;;;;11.08;70.28;101323.66;5442507;26;20020;-78
2024/04/17 11:10:54;;;;;;;0.20;0.20;;;;;;;11.49;70.01;101330.16;5465537;26;20002;-77
2024/04/17 11:13:20;;;;;;;0.10;0.10;;;;;;;11.80;69.31;101327.84;5457403;26;20011;-80
2024/04/17 11:15:48;;;;;;;0.10;0.10;;;;;;;12.06;68.19;101323.00;5460338;26;20007;-80
2024/04/17 11:18:16;;;;;;;0.10;0.10;;;;;;;12.20;66.70;101328.03;5449655;26;20007;-78
2024/04/17 11:20:43;;;;;;;0.10;0.10;;;;;;;12.23;65.08;101328.88;5458960;26;20073;-78
2024/04/17 11:23:09;;;;;;;0.10;0.10;;;;;;;12.25;64.44;101324.41;5450976;26;20009;-78
2024/04/17 11:25:43;;;;;;;0.10;0.10;;;;;;;12.22;64.19;101327.09;5439161;26;19991;-79
2024/04/17 11:28:12;;;;;;;0.10;0.10;;;;;;;12.08;65.30;101338.00;5438106;26;20007;-81
2024/04/17 11:30:46;;;;;;;0.10;0.10;;;;;;;11.85;65.91;101354.31;5443074;26;19994;-80
2024/04/17 11:33:13;;;;;;;0.13;0.13;;;;;;;11.38;65.50;101355.97;5446611;26;20011;-79